createdAt,value
2023-03-03T00:01:17.214Z,19.98
2023-03-03T00:03:44.880Z,20.98
2023-03-03T00:06:14.778Z,19.50
2023-03-03T00:08:42.399Z,19.02
2023-03-03T00:11:10.767Z,20.27
2023-03-03T00:13:50.302Z,18.52
2023-03-03T00:16:32.371Z,19.17
2023-03-03T00:19:01.579Z,20.50
2023-03-03T00:21:40.762Z,19.55
2023-03-03T00:24:25.744Z,20.70
2023-03-03T00:27:01.098Z,18.25
2023-03-03T00:29:36.797Z,21.23
2023-03-03T00:32:25.966Z,19.52
2023-03-03T00:34:56.004Z,19.50
2023-03-03T00:37:28.696Z,20.75
2023-03-03T00:40:34.759Z,19.05
2023-03-03T00:43:12.395Z,20.38
2023-03-03T00:45:43.989Z,19.35
2023-03-03T00:48:21.868Z,20.15
2023-03-03T00:50:49.530Z,22.02
2023-03-03T00:53:19.302Z,19.85
2023-03-03T00:55:48.571Z,22.45
2023-03-03T00:58:18.426Z,19.60
2023-03-03T01:00:45.540Z,20.33
2023-03-03T01:03:21.961Z,20.02
2023-03-03T01:05:50.121Z,20.00
2023-03-03T01:08:18.028Z,22.08
2023-03-03T01:11:02.389Z,20.25
2023-03-03T01:13:32.463Z,19.58
2023-03-03T01:16:01.219Z,20.15
2023-03-03T01:18:29.754Z,21.08
2023-03-03T01:20:57.119Z,20.95
2023-03-03T01:23:24.256Z,22.15
2023-03-03T01:25:51.546Z,23.50
2023-03-03T01:28:18.753Z,23.40
2023-03-03T01:30:46.290Z,25.50
2023-03-03T01:33:13.477Z,24.92
2023-03-03T01:35:45.558Z,22.08
2023-03-03T01:38:13.129Z,23.73
2023-03-03T01:40:40.619Z,23.88
2023-03-03T01:43:08.096Z,24.25
2023-03-03T01:45:50.790Z,23.45
2023-03-03T01:48:33.168Z,22.48
2023-03-03T01:51:19.098Z,23.08
2023-03-03T01:53:52.070Z,20.95
2023-03-03T01:56:19.406Z,22.52
2023-03-03T01:58:53.342Z,21.55
2023-03-03T02:01:25.068Z,19.92
2023-03-03T02:03:53.699Z,20.13
2023-03-03T02:06:25.514Z,22.27
2023-03-03T02:09:34.058Z,21.58
2023-03-03T02:12:05.915Z,22.65
2023-03-03T02:14:32.984Z,22.58
2023-03-03T02:17:00.136Z,21.00
2023-03-03T02:20:01.511Z,22.88
2023-03-03T02:22:44.468Z,22.08
2023-03-03T02:25:20.386Z,22.92
2023-03-03T02:27:47.993Z,19.83
2023-03-03T02:30:22.358Z,20.85
2023-03-03T02:32:49.718Z,23.63
2023-03-03T02:35:35.922Z,20.33
2023-03-03T02:38:26.429Z,22.55
2023-03-03T02:41:18.802Z,22.20
2023-03-03T02:44:21.218Z,22.63
2023-03-03T02:46:50.259Z,21.73
2023-03-03T02:49:26.848Z,23.15
2023-03-03T02:51:54.704Z,24.38
2023-03-03T02:54:24.496Z,24.10
2023-03-03T02:56:51.740Z,22.70
2023-03-03T02:59:19.727Z,22.08
2023-03-03T03:01:47.666Z,20.92
2023-03-03T03:04:17.909Z,21.10
2023-03-03T03:06:45.930Z,23.45
2023-03-03T03:09:14.300Z,19.65
2023-03-03T03:11:42.061Z,19.67
2023-03-03T03:14:10.882Z,21.65
2023-03-03T03:16:38.270Z,20.17
2023-03-03T03:19:09.763Z,20.02
2023-03-03T03:21:37.260Z,19.75
2023-03-03T03:24:04.814Z,18.85
2023-03-03T03:26:32.038Z,18.10
2023-03-03T03:28:59.262Z,20.90
2023-03-03T03:31:26.574Z,18.77
2023-03-03T03:33:53.781Z,21.92
2023-03-03T03:36:21.613Z,21.65
2023-03-03T03:38:49.030Z,19.85
2023-03-03T03:41:18.554Z,19.23
2023-03-03T03:43:46.007Z,18.98
2023-03-03T03:46:13.540Z,18.80
2023-03-03T03:48:40.743Z,19.65
2023-03-03T03:51:08.277Z,18.52
2023-03-03T03:53:35.445Z,21.35
2023-03-03T03:56:02.527Z,20.30
2023-03-03T03:58:30.137Z,18.23
2023-03-03T04:01:04.286Z,19.17
2023-03-03T04:03:31.605Z,21.17
2023-03-03T04:05:58.928Z,19.95
2023-03-03T04:08:26.123Z,21.33
2023-03-03T04:10:53.278Z,20.90
2023-03-03T04:13:23.337Z,20.83
2023-03-03T04:15:50.758Z,19.85
2023-03-03T04:18:18.167Z,20.52
2023-03-03T04:20:45.736Z,21.40
2023-03-03T04:23:13.443Z,22.77
2023-03-03T04:25:40.846Z,19.50
2023-03-03T04:28:17.528Z,22.75
2023-03-03T04:30:45.488Z,21.38
2023-03-03T04:33:13.143Z,21.85
2023-03-03T04:39:31.458Z,17.45
2023-03-03T04:41:58.708Z,19.38
2023-03-03T04:44:26.029Z,20.60
2023-03-03T04:46:53.659Z,21.25
2023-03-03T04:49:21.065Z,19.92
2023-03-03T04:51:48.660Z,19.33
2023-03-03T04:54:16.007Z,17.48
2023-03-03T04:56:43.480Z,20.48
2023-03-03T04:59:10.789Z,22.58
2023-03-03T05:01:38.321Z,18.25
2023-03-03T05:04:05.635Z,16.35
2023-03-03T05:06:32.777Z,19.02
2023-03-03T05:08:59.940Z,20.95
2023-03-03T05:11:27.124Z,18.30
2023-03-03T05:13:54.492Z,17.70
2023-03-03T05:16:21.655Z,19.05
2023-03-03T05:18:49.004Z,19.10
2023-03-03T05:21:16.400Z,18.42
2023-03-03T05:23:43.697Z,18.55
2023-03-03T05:26:11.190Z,20.52
2023-03-03T05:28:38.565Z,18.15
2023-03-03T05:31:05.998Z,18.45
2023-03-03T05:33:33.251Z,18.63
2023-03-03T05:36:00.531Z,18.58
2023-03-03T05:38:27.706Z,18.52
2023-03-03T05:40:55.620Z,19.45
2023-03-03T05:43:23.037Z,19.10
2023-03-03T05:45:58.622Z,18.92
2023-03-03T05:48:25.772Z,18.88
2023-03-03T05:50:53.116Z,19.00
2023-03-03T05:53:20.392Z,19.83
2023-03-03T05:55:47.993Z,19.92
2023-03-03T05:58:15.238Z,19.20
2023-03-03T06:00:42.523Z,20.65
2023-03-03T06:03:09.694Z,20.30
2023-03-03T06:05:37.126Z,21.25
2023-03-03T06:08:04.951Z,18.58
2023-03-03T06:10:32.630Z,20.85
2023-03-03T06:12:59.907Z,19.73
2023-03-03T06:15:27.207Z,19.70
2023-03-03T06:17:54.538Z,19.88
2023-03-03T06:20:21.738Z,19.88
2023-03-03T06:22:48.845Z,17.92
2023-03-03T06:25:17.529Z,19.13
2023-03-03T06:27:45.070Z,20.50
2023-03-03T06:30:13.241Z,19.02
2023-03-03T06:32:40.885Z,18.80
2023-03-03T06:35:08.539Z,18.48
2023-03-03T06:37:38.841Z,18.45
2023-03-03T06:40:07.040Z,18.60
2023-03-03T06:42:34.259Z,20.67
2023-03-03T06:45:01.363Z,20.50
2023-03-03T06:47:28.879Z,20.17
2023-03-03T06:49:56.187Z,20.10
2023-03-03T06:52:27.925Z,19.70
2023-03-03T06:54:57.751Z,17.85
2023-03-03T06:57:43.145Z,19.83
2023-03-03T07:00:25.106Z,19.85
2023-03-03T07:03:08.234Z,19.05
2023-03-03T07:05:35.494Z,21.27
2023-03-03T07:08:04.449Z,20.38
2023-03-03T07:10:31.996Z,19.98
2023-03-03T07:13:18.399Z,20.90
2023-03-03T07:15:46.594Z,22.88
2023-03-03T07:18:53.275Z,22.70
2023-03-03T07:21:26.218Z,23.13
2023-03-03T07:23:54.110Z,21.55
2023-03-03T07:26:25.230Z,19.83
2023-03-03T07:29:00.584Z,17.58
2023-03-03T07:31:42.636Z,18.15
2023-03-03T07:34:36.839Z,21.27
2023-03-03T07:37:37.328Z,17.63
2023-03-03T07:40:38.533Z,19.08
2023-03-03T07:43:28.804Z,20.38
2023-03-03T07:46:11.288Z,20.10
2023-03-03T07:48:42.096Z,19.05
2023-03-03T07:51:27.274Z,19.67
2023-03-03T07:54:15.509Z,21.50
2023-03-03T07:56:42.746Z,20.23
2023-03-03T07:59:25.926Z,21.23
2023-03-03T08:01:59.036Z,20.55
2023-03-03T08:04:30.518Z,20.52
2023-03-03T08:06:59.363Z,20.75
2023-03-03T08:10:01.072Z,23.08
2023-03-03T08:12:42.533Z,21.45
2023-03-03T08:15:37.140Z,23.73
2023-03-03T08:18:20.050Z,22.83
2023-03-03T08:20:58.529Z,24.75
2023-03-03T08:23:25.692Z,24.02
2023-03-03T08:25:53.625Z,26.45
2023-03-03T08:28:21.859Z,24.95
2023-03-03T08:30:50.151Z,26.90
2023-03-03T08:33:18.600Z,25.25
2023-03-03T08:35:46.185Z,27.05
2023-03-03T08:38:16.009Z,27.83
2023-03-03T08:40:44.089Z,29.58
2023-03-03T08:43:17.421Z,26.73
2023-03-03T08:45:49.922Z,25.27
2023-03-03T08:48:17.492Z,24.13
2023-03-03T08:50:45.554Z,23.60
2023-03-03T08:53:14.556Z,27.52
2023-03-03T08:55:43.134Z,27.60
2023-03-03T08:58:11.261Z,26.30
2023-03-03T09:00:44.446Z,28.08
2023-03-03T09:03:12.546Z,26.33
2023-03-03T09:05:41.168Z,27.95
2023-03-03T09:08:11.841Z,27.58
2023-03-03T09:10:39.537Z,27.23
2023-03-03T09:13:19.111Z,26.63
2023-03-03T09:15:47.155Z,25.90
2023-03-03T09:18:18.845Z,27.98
2023-03-03T09:20:57.803Z,27.73
2023-03-03T09:23:41.057Z,27.85
2023-03-03T09:26:55.548Z,28.83
2023-03-03T09:29:31.333Z,25.40
2023-03-03T09:32:21.842Z,24.73
2023-03-03T09:34:49.377Z,26.73
2023-03-03T09:37:44.729Z,27.50
2023-03-03T09:40:30.884Z,29.15
2023-03-03T09:43:12.275Z,30.20
2023-03-03T09:45:58.182Z,27.88
2023-03-03T09:49:02.255Z,32.47
2023-03-03T09:52:03.328Z,32.17
2023-03-03T09:54:59.505Z,28.48
2023-03-03T09:58:17.833Z,30.33
2023-03-03T10:01:15.629Z,25.65
2023-03-03T10:04:16.228Z,28.02
2023-03-03T10:07:09.543Z,28.40
2023-03-03T10:09:57.892Z,31.88
2023-03-03T10:12:32.609Z,28.17
2023-03-03T10:15:13.647Z,29.13
2023-03-03T10:18:08.964Z,30.00
2023-03-03T10:20:59.823Z,28.33
2023-03-03T10:24:16.627Z,26.55
2023-03-03T10:29:57.692Z,28.48
2023-03-03T10:32:49.882Z,33.45
2023-03-03T10:35:35.632Z,28.38
2023-03-03T10:38:48.118Z,31.00
2023-03-03T10:41:27.084Z,29.35
2023-03-03T10:44:29.256Z,28.63
2023-03-03T10:46:59.301Z,27.40
2023-03-03T10:50:08.601Z,26.63
2023-03-03T10:53:02.155Z,31.13
2023-03-03T10:55:50.401Z,30.48
2023-03-03T10:58:41.312Z,32.45
2023-03-03T11:01:31.283Z,32.38
2023-03-03T11:04:01.567Z,27.77
2023-03-03T11:06:47.146Z,29.90
2023-03-03T11:12:11.615Z,29.33
2023-03-03T11:15:05.517Z,30.38
2023-03-03T11:18:01.116Z,31.00
2023-03-03T11:20:58.457Z,30.10
2023-03-03T11:23:48.062Z,26.98
2023-03-03T11:26:35.882Z,26.88
2023-03-03T11:29:39.924Z,26.33
2023-03-03T11:33:00.624Z,27.42
2023-03-03T11:35:44.962Z,26.67
2023-03-03T11:38:27.914Z,28.15
2023-03-03T11:41:15.925Z,24.13
2023-03-03T11:43:50.326Z,24.42
2023-03-03T11:46:30.166Z,27.00
2023-03-03T11:49:12.457Z,23.45
2023-03-03T11:51:51.308Z,25.50
2023-03-03T11:54:31.251Z,26.20
2023-03-03T11:57:35.673Z,23.27
2023-03-03T12:00:35.741Z,21.25
2023-03-03T12:03:39.799Z,25.40
2023-03-03T12:06:25.960Z,23.63
2023-03-03T12:09:03.769Z,23.20
2023-03-03T12:11:46.982Z,22.73
2023-03-03T12:14:46.308Z,18.23
2023-03-03T12:17:38.245Z,17.50
2023-03-03T12:20:20.208Z,16.08
2023-03-03T12:23:24.655Z,14.80
2023-03-03T12:26:17.069Z,14.82
2023-03-03T12:29:07.943Z,15.25
2023-03-03T12:31:47.045Z,13.63
2023-03-03T12:34:37.774Z,13.52
2023-03-03T12:37:33.929Z,17.83
2023-03-03T12:40:41.690Z,14.32
2023-03-03T12:43:36.667Z,12.13
2023-03-03T12:46:29.800Z,12.50
2023-03-03T12:48:57.444Z,12.35
2023-03-03T12:51:30.875Z,14.40
2023-03-03T12:54:20.681Z,12.70
2023-03-03T12:56:55.508Z,11.52
2023-03-03T13:02:27.378Z,13.75
2023-03-03T13:05:20.465Z,12.68
2023-03-03T13:08:17.628Z,11.95
2023-03-03T13:11:15.562Z,12.88
2023-03-03T13:14:23.871Z,14.25
2023-03-03T13:17:06.541Z,16.23
2023-03-03T13:19:46.637Z,12.23
2023-03-03T13:22:31.845Z,14.35
2023-03-03T13:25:17.217Z,13.25
2023-03-03T13:27:48.292Z,12.68
2023-03-03T13:30:20.516Z,14.95
2023-03-03T13:32:59.755Z,14.25
2023-03-03T13:35:46.374Z,15.13
2023-03-03T13:38:20.617Z,13.65
2023-03-03T13:40:54.875Z,11.40
2023-03-03T13:43:49.336Z,10.05
2023-03-03T13:46:28.705Z,10.15
2023-03-03T13:49:01.717Z,10.07
2023-03-03T13:51:37.894Z,8.85
2023-03-03T13:54:31.484Z,8.40
2023-03-03T13:57:11.016Z,9.63
2023-03-03T14:00:04.404Z,9.85
2023-03-03T14:03:08.929Z,8.00
2023-03-03T14:05:52.807Z,9.05
2023-03-03T14:08:47.581Z,7.88
2023-03-03T14:11:41.204Z,7.60
2023-03-03T14:14:14.441Z,6.22
2023-03-03T14:16:57.759Z,6.45
2023-03-03T14:19:37.755Z,6.55
2023-03-03T14:22:42.479Z,6.80
2023-03-03T14:25:13.630Z,5.30
2023-03-03T14:27:59.500Z,6.45
2023-03-03T14:30:42.354Z,4.60
2023-03-03T14:33:12.157Z,5.20
2023-03-03T14:35:44.703Z,5.30
2023-03-03T14:38:21.602Z,4.35
2023-03-03T14:40:49.658Z,6.95
2023-03-03T14:43:26.031Z,4.80
2023-03-03T14:45:54.698Z,4.28
2023-03-03T14:48:27.535Z,4.30
2023-03-03T14:50:59.462Z,3.72
2023-03-03T14:53:37.346Z,3.58
2023-03-03T14:56:36.245Z,3.88
2023-03-03T14:59:25.763Z,3.45
2023-03-03T15:02:17.879Z,4.75
2023-03-03T15:04:49.092Z,4.60
2023-03-03T15:07:39.078Z,3.92
2023-03-03T15:10:07.810Z,4.00
2023-03-03T15:12:41.097Z,3.95
2023-03-03T15:15:11.631Z,5.22
2023-03-03T15:17:45.862Z,4.30
2023-03-03T15:20:41.724Z,5.47
2023-03-03T15:23:20.485Z,5.57
2023-03-03T15:25:55.032Z,4.75
2023-03-03T15:28:33.242Z,5.53
2023-03-03T15:31:09.194Z,4.22
2023-03-03T15:33:50.318Z,6.70
2023-03-03T15:36:45.425Z,5.05
2023-03-03T15:39:47.726Z,5.32
2023-03-03T15:42:48.583Z,4.70
2023-03-03T15:45:27.449Z,4.68
2023-03-03T15:48:18.692Z,5.00
2023-03-03T15:51:06.775Z,5.35
2023-03-03T15:53:56.778Z,4.47
2023-03-03T15:56:42.981Z,5.80
2023-03-03T15:59:25.160Z,5.57
2023-03-03T16:01:58.149Z,5.72
2023-03-03T16:04:41.236Z,7.35
2023-03-03T16:07:14.354Z,6.57
2023-03-03T16:09:44.404Z,6.35
2023-03-03T16:12:30.222Z,5.00
2023-03-03T16:15:21.429Z,4.72
2023-03-03T16:18:12.369Z,6.38
2023-03-03T16:20:54.697Z,7.50
2023-03-03T16:23:42.412Z,7.10
2023-03-03T16:26:24.726Z,8.98
2023-03-03T16:28:51.844Z,6.85
2023-03-03T16:31:40.115Z,6.40
2023-03-03T16:34:23.954Z,6.30
2023-03-03T16:37:07.468Z,9.40
2023-03-03T16:39:52.285Z,8.60
2023-03-03T16:42:34.944Z,5.37
2023-03-03T16:45:23.248Z,5.93
2023-03-03T16:47:56.205Z,4.65
2023-03-03T16:50:51.497Z,5.22
2023-03-03T16:53:52.551Z,5.43
2023-03-03T16:56:27.532Z,6.82
2023-03-03T16:59:32.314Z,5.93
2023-03-03T17:02:02.591Z,8.02
2023-03-03T17:04:39.330Z,9.02
2023-03-03T17:07:31.568Z,13.57
2023-03-03T17:10:20.921Z,23.83
2023-03-03T17:13:01.782Z,18.42
2023-03-03T17:15:51.195Z,25.65
2023-03-03T17:18:38.482Z,25.35
2023-03-03T17:21:33.795Z,40.58
2023-03-03T17:24:21.166Z,19.38
2023-03-03T17:27:11.421Z,20.92
2023-03-03T17:29:57.142Z,17.83
2023-03-03T17:35:43.090Z,9.23
2023-03-03T17:38:19.837Z,9.35
2023-03-03T17:41:01.502Z,11.77
2023-03-03T17:43:48.370Z,8.80
2023-03-03T17:46:21.665Z,8.52
2023-03-03T17:49:18.593Z,9.73
2023-03-03T17:52:07.568Z,11.45
2023-03-03T17:55:04.767Z,11.60
2023-03-03T17:57:42.176Z,11.30
2023-03-03T18:00:42.269Z,11.20
2023-03-03T18:03:33.937Z,10.60
2023-03-03T18:06:26.743Z,12.27
2023-03-03T18:09:32.156Z,11.48
2023-03-03T18:12:11.417Z,9.23
2023-03-03T18:15:20.619Z,9.65
2023-03-03T18:17:54.627Z,9.07
2023-03-03T18:20:48.167Z,7.75
2023-03-03T18:23:28.971Z,8.52
2023-03-03T18:26:00.093Z,7.78
2023-03-03T18:29:05.757Z,9.15
2023-03-03T18:31:49.004Z,10.82
2023-03-03T18:34:22.193Z,9.82
2023-03-03T18:37:33.672Z,7.30
2023-03-03T18:40:03.810Z,8.00
2023-03-03T18:42:42.692Z,9.07
2023-03-03T18:45:32.619Z,9.73
2023-03-03T18:48:09.239Z,7.68
2023-03-03T18:50:36.483Z,8.65
2023-03-03T18:53:25.650Z,7.28
2023-03-03T18:55:55.551Z,7.15
2023-03-03T18:58:31.921Z,7.68
2023-03-03T19:01:05.171Z,7.40
2023-03-03T19:03:47.454Z,7.25
2023-03-03T19:06:37.823Z,6.28
2023-03-03T19:09:06.902Z,6.88
2023-03-03T19:11:41.316Z,9.23
2023-03-03T19:14:27.998Z,8.07
2023-03-03T19:16:58.579Z,5.35
2023-03-03T19:19:32.915Z,6.40
2023-03-03T19:22:27.222Z,6.07
2023-03-03T19:25:09.778Z,5.45
2023-03-03T19:27:59.798Z,5.03
2023-03-03T19:30:55.751Z,5.63
2023-03-03T19:33:53.465Z,5.50
2023-03-03T19:36:36.263Z,3.55
2023-03-03T19:39:24.068Z,6.03
2023-03-03T19:42:05.977Z,4.07
2023-03-03T19:45:09.407Z,4.43
2023-03-03T19:47:48.210Z,4.97
2023-03-03T19:50:49.550Z,4.88
2023-03-03T19:53:17.219Z,4.68
2023-03-03T19:56:10.099Z,5.68
2023-03-03T19:59:14.084Z,4.78
2023-03-03T20:01:44.310Z,4.60
2023-03-03T20:04:32.166Z,4.38
2023-03-03T20:07:10.685Z,4.35
2023-03-03T20:09:56.927Z,4.53
2023-03-03T20:12:36.070Z,3.90
2023-03-03T20:15:19.170Z,3.90
2023-03-03T20:17:55.852Z,5.07
2023-03-03T20:21:05.628Z,5.38
2023-03-03T20:23:48.922Z,3.47
2023-03-03T20:26:32.469Z,4.40
2023-03-03T20:29:18.509Z,4.32
2023-03-03T20:31:58.240Z,3.90
2023-03-03T20:34:53.595Z,5.63
2023-03-03T20:37:49.229Z,4.10
2023-03-03T20:40:43.244Z,4.65
2023-03-03T20:43:28.650Z,6.43
2023-03-03T20:46:12.412Z,100.35
2023-03-03T20:49:04.702Z,21.10
2023-03-03T20:51:34.880Z,7.07
2023-03-03T20:54:07.786Z,6.75
2023-03-03T20:56:58.112Z,4.85
2023-03-03T20:59:40.941Z,5.35
2023-03-03T21:02:20.486Z,5.15
2023-03-03T21:05:06.429Z,4.32
2023-03-03T21:07:37.597Z,4.22
2023-03-03T21:10:32.229Z,4.10
2023-03-03T21:13:37.346Z,5.20
2023-03-03T21:16:12.382Z,5.05
2023-03-03T21:18:39.847Z,4.93
2023-03-03T21:21:08.582Z,3.70
2023-03-03T21:23:35.989Z,6.20
2023-03-03T21:26:03.934Z,5.47
2023-03-03T21:28:34.068Z,9.07
2023-03-03T21:31:09.710Z,6.20
2023-03-03T21:33:57.888Z,6.05
2023-03-03T21:36:46.801Z,4.60
2023-03-03T21:39:30.266Z,7.50
2023-03-03T21:42:15.117Z,4.68
2023-03-03T21:44:50.329Z,5.53
2023-03-03T21:47:23.389Z,5.53
2023-03-03T21:49:53.996Z,4.28
2023-03-03T21:52:23.005Z,6.70
2023-03-03T21:54:51.861Z,5.55
2023-03-03T21:57:19.080Z,5.80
2023-03-03T21:59:46.214Z,4.88
2023-03-03T22:02:13.705Z,6.68
2023-03-03T22:04:41.358Z,6.68
2023-03-03T22:07:11.629Z,4.38
2023-03-03T22:09:39.598Z,4.80
2023-03-03T22:12:07.598Z,5.28
2023-03-03T22:14:34.712Z,8.13
2023-03-03T22:17:02.365Z,6.80
2023-03-03T22:19:29.602Z,5.18
2023-03-03T22:21:56.773Z,4.70
2023-03-03T22:24:24.140Z,4.70
2023-03-03T22:26:51.455Z,4.80
2023-03-03T22:29:23.147Z,5.95
2023-03-03T22:31:51.352Z,6.22
2023-03-03T22:34:19.310Z,4.88
2023-03-03T22:36:46.543Z,6.50
2023-03-03T22:39:13.894Z,4.97
2023-03-03T22:41:41.262Z,4.90
2023-03-03T22:44:08.385Z,4.35
2023-03-03T22:46:35.771Z,5.38
2023-03-03T22:49:03.074Z,4.03
2023-03-03T22:51:30.241Z,5.38
2023-03-03T22:53:57.469Z,5.95
2023-03-03T22:56:27.407Z,5.55
2023-03-03T22:58:54.663Z,4.03
2023-03-03T23:01:21.884Z,6.20
2023-03-03T23:03:50.649Z,3.65
2023-03-03T23:06:18.169Z,3.35
2023-03-03T23:08:45.904Z,5.20
2023-03-03T23:11:13.236Z,4.45
2023-03-03T23:13:43.305Z,3.90
2023-03-03T23:16:14.057Z,5.00
2023-03-03T23:18:41.891Z,3.60
2023-03-03T23:21:09.301Z,3.38
2023-03-03T23:23:36.712Z,3.90
2023-03-03T23:26:04.076Z,4.22
2023-03-03T23:28:31.470Z,4.07
2023-03-03T23:30:59.283Z,4.18
2023-03-03T23:33:26.664Z,4.25
2023-03-03T23:35:54.008Z,3.55
2023-03-03T23:38:21.296Z,5.18
2023-03-03T23:40:48.649Z,4.00
2023-03-03T23:43:16.118Z,2.67
2023-03-03T23:45:43.486Z,4.13
2023-03-03T23:48:11.136Z,4.05
2023-03-03T23:50:41.499Z,3.65
2023-03-03T23:53:09.273Z,3.15
2023-03-03T23:55:37.790Z,4.30
2023-03-03T23:58:05.443Z,3.30
